OIBL METAR and TAF | Updated Today

OIBL METAR

Bandar Lengeh Airport

Observation time: 14 min. ago

OIBL 060900Z 22010KT 7000 FEW025 26/16 Q1016

Need help? Read our tutorial on how to read METARs or read the parsed version below.

Bandar Lengeh Airport (OIBL) METAR

  • Weather conditions on Mon, 06 Dec 2021 09:00:00 +0000 (14 min. ago):
  • Present conditions: Dry
  • Clouds: A few at 762 meters
  • Visibility: 7000 meters
  • Wind: 220 degrees at 10 knots
  • Temperature: 26 celsius
  • Dew point: 16 celsius
  • Pressure: 1016 millibars
  • Remarks: None


Useful to know...